createdAt,value
2019-06-26T00:00:18.421Z,64.50
2019-06-26T00:02:45.710Z,64.50
2019-06-26T00:05:12.516Z,64.53
2019-06-26T00:07:39.358Z,64.40
2019-06-26T00:10:06.349Z,64.44
2019-06-26T00:12:33.218Z,64.38
2019-06-26T00:15:00.075Z,64.41
2019-06-26T00:17:26.894Z,64.40
2019-06-26T00:19:53.846Z,64.40
2019-06-26T00:22:20.699Z,64.36
2019-06-26T00:24:47.974Z,64.41
2019-06-26T00:27:14.803Z,64.41
2019-06-26T00:29:41.649Z,64.41
2019-06-26T00:32:08.575Z,64.36
2019-06-26T00:34:35.462Z,64.40
2019-06-26T00:37:02.376Z,64.38
2019-06-26T00:39:29.437Z,64.42
2019-06-26T00:41:56.544Z,64.45
2019-06-26T00:44:23.358Z,64.43
2019-06-26T00:46:50.208Z,64.41
2019-06-26T00:49:17.008Z,64.38
2019-06-26T00:51:43.911Z,64.41
2019-06-26T00:54:10.817Z,64.42
2019-06-26T00:56:37.683Z,64.31
2019-06-26T00:59:04.676Z,64.37
2019-06-26T01:01:31.593Z,64.35
2019-06-26T01:04:00.175Z,64.36
2019-06-26T01:06:45.048Z,64.31
2019-06-26T01:09:11.998Z,64.41
2019-06-26T01:11:38.827Z,64.36
2019-06-26T01:14:05.656Z,64.33
2019-06-26T01:16:32.461Z,64.38
2019-06-26T01:18:59.282Z,64.36
2019-06-26T01:21:26.169Z,64.38
2019-06-26T01:23:53.119Z,64.38
2019-06-26T01:26:20.016Z,64.39
2019-06-26T01:28:46.894Z,64.34
2019-06-26T01:31:13.773Z,64.36
2019-06-26T01:33:40.629Z,64.36
2019-06-26T01:36:07.527Z,64.37
2019-06-26T01:38:35.541Z,64.31
2019-06-26T01:41:02.381Z,64.42
2019-06-26T01:43:29.252Z,64.41
2019-06-26T01:45:56.049Z,64.36
2019-06-26T01:48:22.974Z,64.42
2019-06-26T01:50:49.831Z,64.35
2019-06-26T01:53:16.761Z,64.33
2019-06-26T01:55:43.627Z,64.31
2019-06-26T01:58:10.492Z,64.35
2019-06-26T02:00:37.313Z,64.35
2019-06-26T02:03:04.157Z,64.33
2019-06-26T02:05:30.968Z,64.36
2019-06-26T02:07:57.776Z,64.33
2019-06-26T02:10:24.651Z,64.30
2019-06-26T02:12:51.523Z,64.37
2019-06-26T02:15:18.379Z,64.31
2019-06-26T02:17:45.230Z,64.37
2019-06-26T02:20:12.074Z,64.35
2019-06-26T02:22:39.023Z,64.38
2019-06-26T02:25:05.893Z,64.33
2019-06-26T02:27:32.793Z,64.33
2019-06-26T02:29:59.636Z,64.38
2019-06-26T02:32:26.530Z,64.32
2019-06-26T02:34:53.402Z,64.17
2019-06-26T02:37:20.277Z,64.15
2019-06-26T02:39:47.138Z,64.17
2019-06-26T02:42:13.949Z,64.07
2019-06-26T02:44:52.844Z,64.17
2019-06-26T02:47:19.453Z,64.07
2019-06-26T02:49:38.063Z,64.15
2019-06-26T02:52:04.962Z,64.05
2019-06-26T02:54:31.846Z,64.08
2019-06-26T02:56:58.660Z,64.19
2019-06-26T02:59:25.514Z,64.23
2019-06-26T03:01:52.406Z,64.14
2019-06-26T03:04:19.188Z,64.19
2019-06-26T03:06:46.008Z,64.26
2019-06-26T03:09:12.989Z,64.17
2019-06-26T03:11:39.952Z,64.21
2019-06-26T03:14:06.951Z,64.11
2019-06-26T03:16:33.881Z,64.07
2019-06-26T03:19:00.781Z,64.10
2019-06-26T03:21:27.652Z,64.25
2019-06-26T03:23:54.469Z,64.18
2019-06-26T03:26:21.351Z,64.26
2019-06-26T03:28:48.212Z,64.27
2019-06-26T03:31:15.121Z,64.15
2019-06-26T03:33:42.138Z,64.17
2019-06-26T03:36:09.020Z,64.11
2019-06-26T03:38:35.842Z,64.27
2019-06-26T03:41:02.676Z,64.15
2019-06-26T03:43:29.481Z,64.21
2019-06-26T03:45:56.367Z,64.20
2019-06-26T03:48:23.245Z,64.38
2019-06-26T03:50:50.060Z,64.35
2019-06-26T03:53:16.955Z,64.27
2019-06-26T03:55:43.826Z,64.27
2019-06-26T03:58:10.683Z,64.34
2019-06-26T04:00:37.568Z,64.26
2019-06-26T04:03:04.400Z,64.35
2019-06-26T04:05:31.218Z,64.38
2019-06-26T04:07:58.151Z,64.38
2019-06-26T04:10:24.985Z,64.39
2019-06-26T04:12:51.791Z,64.33
2019-06-26T04:15:19.098Z,64.53
2019-06-26T04:17:45.919Z,64.31
2019-06-26T04:20:12.715Z,64.39
2019-06-26T04:22:39.585Z,64.37
2019-06-26T04:25:06.532Z,64.27
2019-06-26T04:27:33.330Z,64.39
2019-06-26T04:30:00.091Z,64.38
2019-06-26T04:32:26.938Z,64.38
2019-06-26T04:34:54.637Z,64.42
2019-06-26T04:37:21.515Z,64.36
2019-06-26T04:39:48.329Z,64.44
2019-06-26T04:42:15.122Z,64.52
2019-06-26T04:44:41.979Z,64.45
2019-06-26T04:47:08.798Z,64.52
2019-06-26T04:49:35.700Z,64.53
2019-06-26T04:52:02.567Z,64.46
2019-06-26T04:54:29.359Z,64.53
2019-06-26T04:56:56.175Z,64.52
2019-06-26T04:59:23.112Z,64.55
2019-06-26T05:01:50.001Z,64.59
2019-06-26T05:04:16.870Z,64.55
2019-06-26T05:06:43.731Z,64.61
2019-06-26T05:09:10.533Z,64.61
2019-06-26T05:11:37.476Z,64.63
2019-06-26T05:14:04.315Z,64.60
2019-06-26T05:16:31.123Z,64.62
2019-06-26T05:18:57.972Z,64.63
2019-06-26T05:21:24.790Z,64.61
2019-06-26T05:23:51.640Z,64.59
2019-06-26T05:26:18.549Z,64.60
2019-06-26T05:28:45.363Z,64.58
2019-06-26T05:31:12.217Z,64.66
2019-06-26T05:33:39.029Z,64.65
2019-06-26T05:36:05.807Z,64.61
2019-06-26T05:38:32.837Z,64.62
2019-06-26T05:40:59.653Z,64.62
2019-06-26T05:43:26.508Z,64.67
2019-06-26T05:45:53.339Z,64.67
2019-06-26T05:48:20.201Z,64.61
2019-06-26T05:50:47.018Z,64.66
2019-06-26T05:53:13.822Z,64.67
2019-06-26T05:55:40.625Z,64.65
2019-06-26T05:58:07.493Z,64.65
2019-06-26T06:00:34.352Z,64.66
2019-06-26T06:03:01.201Z,64.65
2019-06-26T06:05:28.066Z,64.67
2019-06-26T06:07:55.810Z,64.69
2019-06-26T06:10:22.689Z,64.68
2019-06-26T06:12:49.647Z,64.69
2019-06-26T06:15:16.614Z,64.73
2019-06-26T06:17:43.498Z,64.76
2019-06-26T06:20:10.307Z,64.71
2019-06-26T06:22:37.213Z,64.75
2019-06-26T06:25:04.123Z,64.80
2019-06-26T06:27:30.972Z,64.80
2019-06-26T06:29:57.744Z,64.84
2019-06-26T06:32:24.519Z,64.88
2019-06-26T06:34:51.314Z,64.74
2019-06-26T06:37:18.119Z,64.52
2019-06-26T06:39:44.887Z,64.59
2019-06-26T06:42:11.931Z,65.35
2019-06-26T06:44:38.695Z,66.30
2019-06-26T06:47:08.771Z,65.94
2019-06-26T06:49:33.995Z,65.85
2019-06-26T06:52:00.789Z,66.15
2019-06-26T06:54:27.568Z,66.28
2019-06-26T06:56:54.352Z,66.02
2019-06-26T06:59:21.151Z,65.70
2019-06-26T07:01:47.923Z,65.62
2019-06-26T07:04:14.730Z,65.43
2019-06-26T07:06:41.758Z,65.33
2019-06-26T07:09:08.552Z,65.24
2019-06-26T07:11:35.325Z,65.16
2019-06-26T07:14:02.143Z,65.09
2019-06-26T07:16:29.094Z,65.02
2019-06-26T07:18:55.847Z,64.98
2019-06-26T07:21:22.909Z,64.92
2019-06-26T07:23:49.689Z,64.86
2019-06-26T07:26:16.466Z,64.81
2019-06-26T07:28:43.226Z,64.69
2019-06-26T07:31:10.006Z,64.65
2019-06-26T07:33:36.795Z,64.64
2019-06-26T07:36:03.824Z,64.57
2019-06-26T07:38:30.834Z,64.53
2019-06-26T07:40:57.604Z,64.50
2019-06-26T07:43:24.442Z,64.41
2019-06-26T07:45:51.220Z,64.40
2019-06-26T07:48:18.023Z,64.41
2019-06-26T07:50:44.807Z,64.34
2019-06-26T07:53:11.568Z,64.30
2019-06-26T07:55:40.601Z,64.32
2019-06-26T07:58:07.085Z,64.27
2019-06-26T08:00:33.895Z,64.25
2019-06-26T08:03:04.087Z,64.25
2019-06-26T08:05:29.223Z,64.19
2019-06-26T08:07:55.996Z,64.21
2019-06-26T08:10:22.826Z,64.19
2019-06-26T08:12:49.618Z,64.17
2019-06-26T08:15:16.413Z,64.17
2019-06-26T08:17:59.055Z,64.12
2019-06-26T08:20:11.673Z,64.15
2019-06-26T08:22:38.436Z,64.16
2019-06-26T08:25:05.245Z,64.18
2019-06-26T08:27:32.029Z,64.17
2019-06-26T08:29:58.794Z,64.15
2019-06-26T08:32:26.142Z,64.14
2019-06-26T08:34:53.022Z,64.14
2019-06-26T08:37:19.882Z,64.14
2019-06-26T08:39:46.649Z,64.14
2019-06-26T08:42:13.425Z,64.11
2019-06-26T08:44:40.284Z,64.11
2019-06-26T08:47:07.071Z,64.11
2019-06-26T08:49:33.857Z,64.12
2019-06-26T08:52:00.655Z,64.12
2019-06-26T08:54:27.465Z,64.10
2019-06-26T08:56:54.232Z,64.12
2019-06-26T08:59:21.002Z,64.10
2019-06-26T09:01:47.800Z,64.12
2019-06-26T09:04:14.570Z,64.14
2019-06-26T09:06:41.399Z,64.13
2019-06-26T09:09:08.284Z,64.12
2019-06-26T09:11:35.082Z,64.10
2019-06-26T09:14:01.948Z,64.12
2019-06-26T09:16:28.778Z,64.11
2019-06-26T09:18:55.586Z,64.14
2019-06-26T09:21:22.380Z,64.16
2019-06-26T09:23:49.289Z,64.20
2019-06-26T09:26:16.233Z,64.19
2019-06-26T09:28:43.069Z,64.19
2019-06-26T09:31:09.860Z,64.17
2019-06-26T09:33:36.678Z,64.19
2019-06-26T09:36:06.734Z,64.15
2019-06-26T09:38:31.993Z,64.16
2019-06-26T09:40:58.795Z,64.19
2019-06-26T09:43:25.671Z,64.18
2019-06-26T09:45:52.454Z,64.19
2019-06-26T09:48:19.246Z,64.22
2019-06-26T09:50:46.035Z,64.18
2019-06-26T09:53:12.809Z,64.20
2019-06-26T09:55:39.572Z,64.20
2019-06-26T09:58:06.367Z,64.21
2019-06-26T10:00:33.207Z,64.22
2019-06-26T10:02:59.968Z,64.23
2019-06-26T10:05:26.778Z,64.26
2019-06-26T10:07:53.554Z,64.35
2019-06-26T10:10:20.463Z,65.19
2019-06-26T10:12:47.245Z,65.63
2019-06-26T10:15:14.026Z,65.52
2019-06-26T10:17:40.822Z,67.13
2019-06-26T10:20:07.588Z,66.80
2019-06-26T10:22:34.379Z,66.19
2019-06-26T10:25:01.169Z,66.02
2019-06-26T10:27:28.009Z,66.00
2019-06-26T10:29:54.797Z,65.94
2019-06-26T10:32:21.583Z,65.87
2019-06-26T10:34:48.351Z,65.89
2019-06-26T10:37:15.178Z,65.95
2019-06-26T10:39:41.968Z,66.69
2019-06-26T10:42:08.864Z,66.49
2019-06-26T10:44:35.680Z,66.31
2019-06-26T10:47:02.590Z,66.11
2019-06-26T10:49:29.383Z,66.15
2019-06-26T10:51:56.162Z,66.27
2019-06-26T10:54:23.006Z,66.06
2019-06-26T10:56:49.820Z,66.32
2019-06-26T10:59:16.686Z,66.18
2019-06-26T11:01:43.559Z,65.95
2019-06-26T11:04:10.487Z,66.13
2019-06-26T11:06:37.390Z,66.01
2019-06-26T11:09:04.889Z,66.08
2019-06-26T11:11:31.677Z,65.95
2019-06-26T11:13:58.498Z,65.90
2019-06-26T11:16:25.273Z,65.93
2019-06-26T11:18:52.345Z,65.95
2019-06-26T11:21:19.207Z,65.93
2019-06-26T11:23:46.026Z,66.01
2019-06-26T11:26:12.822Z,65.98
2019-06-26T11:28:39.660Z,65.91
2019-06-26T11:31:06.504Z,65.90
2019-06-26T11:33:33.400Z,65.75
2019-06-26T11:36:00.276Z,65.81
2019-06-26T11:38:27.120Z,65.87
2019-06-26T11:40:53.968Z,65.75
2019-06-26T11:43:20.765Z,65.67
2019-06-26T11:45:48.138Z,65.90
2019-06-26T11:48:15.034Z,65.74
2019-06-26T11:50:41.860Z,66.03
2019-06-26T11:53:08.665Z,65.99
2019-06-26T11:55:36.380Z,65.76
2019-06-26T11:58:03.243Z,65.94
2019-06-26T12:00:30.808Z,66.00
2019-06-26T12:02:57.659Z,65.94
2019-06-26T12:05:24.494Z,66.00
2019-06-26T12:07:51.330Z,65.77
2019-06-26T12:10:18.195Z,65.74
2019-06-26T12:12:45.213Z,65.79
2019-06-26T12:15:12.035Z,65.83
2019-06-26T12:17:38.835Z,65.85
2019-06-26T12:20:17.777Z,65.81
2019-06-26T12:22:35.521Z,65.80
2019-06-26T12:25:02.367Z,65.74
2019-06-26T12:27:29.209Z,65.76
2019-06-26T12:29:56.037Z,65.76
2019-06-26T12:32:22.885Z,65.80
2019-06-26T12:34:49.792Z,65.76
2019-06-26T12:37:16.773Z,65.74
2019-06-26T12:39:43.950Z,65.75
2019-06-26T12:42:10.742Z,65.75
2019-06-26T12:44:37.565Z,65.64
2019-06-26T12:47:04.354Z,65.72
2019-06-26T12:49:31.251Z,65.72
2019-06-26T12:51:58.046Z,65.68
2019-06-26T12:54:24.879Z,65.75
2019-06-26T12:56:57.434Z,65.72
2019-06-26T12:59:24.233Z,65.67
2019-06-26T13:01:51.021Z,65.54
2019-06-26T13:04:17.824Z,65.59
2019-06-26T13:06:44.719Z,65.46
2019-06-26T13:09:11.566Z,65.50
2019-06-26T13:11:38.354Z,65.46
2019-06-26T13:14:05.453Z,65.35
2019-06-26T13:16:32.337Z,65.35
2019-06-26T13:18:59.111Z,65.31
2019-06-26T13:21:25.986Z,65.21
2019-06-26T13:23:53.736Z,65.23
2019-06-26T13:26:20.830Z,65.23
2019-06-26T13:28:47.689Z,65.15
2019-06-26T13:31:14.487Z,65.13
2019-06-26T13:33:41.288Z,65.10
2019-06-26T13:36:08.069Z,64.69
2019-06-26T13:38:34.915Z,65.21
2019-06-26T13:41:01.675Z,65.32
2019-06-26T13:43:28.518Z,65.27
2019-06-26T13:45:58.598Z,65.24
2019-06-26T13:48:23.860Z,65.26
2019-06-26T13:50:50.639Z,65.25
2019-06-26T13:53:17.409Z,65.20
2019-06-26T13:55:44.201Z,65.18
2019-06-26T13:58:10.977Z,65.20
2019-06-26T14:00:37.776Z,65.14
2019-06-26T14:03:04.617Z,65.11
2019-06-26T14:05:31.499Z,65.06
2019-06-26T14:07:58.277Z,65.05
2019-06-26T14:10:25.065Z,65.01
2019-06-26T14:12:51.857Z,65.00
2019-06-26T14:15:18.655Z,64.97
2019-06-26T14:17:45.460Z,64.97
2019-06-26T14:20:12.220Z,64.85
2019-06-26T14:22:39.002Z,64.88
2019-06-26T14:25:05.795Z,64.81
2019-06-26T14:27:32.657Z,64.77
2019-06-26T14:29:59.438Z,64.79
2019-06-26T14:32:26.209Z,64.71
2019-06-26T14:34:52.989Z,64.75
2019-06-26T14:37:19.755Z,64.73
2019-06-26T14:39:46.529Z,64.71
2019-06-26T14:42:13.302Z,64.66
2019-06-26T14:44:40.130Z,64.65
2019-06-26T14:47:06.966Z,64.62
2019-06-26T14:49:33.748Z,64.59
2019-06-26T14:52:00.507Z,64.52
2019-06-26T14:54:27.299Z,64.53
2019-06-26T14:56:54.107Z,64.50
2019-06-26T14:59:20.914Z,64.50
2019-06-26T15:01:47.681Z,64.48
2019-06-26T15:04:14.459Z,64.43
2019-06-26T15:06:41.245Z,64.41
2019-06-26T15:09:08.110Z,64.42
2019-06-26T15:11:34.878Z,64.36
2019-06-26T15:14:04.768Z,64.33
2019-06-26T15:16:31.598Z,64.32
2019-06-26T15:18:58.365Z,64.34
2019-06-26T15:21:25.142Z,64.27
2019-06-26T15:23:51.923Z,64.25
2019-06-26T15:26:18.718Z,64.25
2019-06-26T15:28:45.532Z,64.22
2019-06-26T15:31:12.311Z,64.21
2019-06-26T15:33:39.100Z,64.20
2019-06-26T15:36:05.932Z,64.22
2019-06-26T15:38:32.738Z,64.19
2019-06-26T15:40:59.506Z,64.13
2019-06-26T15:43:26.285Z,64.14
2019-06-26T15:45:53.049Z,64.13
2019-06-26T15:48:19.842Z,63.98
2019-06-26T15:50:46.729Z,64.03
2019-06-26T15:53:13.511Z,64.13
2019-06-26T15:55:40.643Z,64.18
2019-06-26T15:58:07.404Z,64.05
2019-06-26T16:00:34.188Z,64.06
2019-06-26T16:03:00.949Z,64.02
2019-06-26T16:05:27.736Z,64.03
2019-06-26T16:07:54.505Z,64.02
2019-06-26T16:10:21.339Z,63.98
2019-06-26T16:12:48.140Z,64.00
2019-06-26T16:15:14.924Z,64.02
2019-06-26T16:17:43.371Z,63.99
2019-06-26T16:20:10.157Z,63.97
2019-06-26T16:22:36.962Z,63.97
2019-06-26T16:25:03.763Z,63.95
2019-06-26T16:27:30.631Z,63.96
2019-06-26T16:29:57.429Z,63.92
2019-06-26T16:32:24.239Z,63.92
2019-06-26T16:34:51.071Z,63.93
2019-06-26T16:37:17.850Z,63.94
2019-06-26T16:39:44.640Z,63.92
2019-06-26T16:42:11.567Z,63.90
2019-06-26T16:44:38.348Z,63.92
2019-06-26T16:47:05.142Z,63.85
2019-06-26T16:49:31.948Z,63.91
2019-06-26T16:51:58.716Z,63.91
2019-06-26T16:54:25.540Z,63.72
2019-06-26T16:56:52.309Z,64.06
2019-06-26T16:59:19.086Z,63.99
2019-06-26T17:01:45.883Z,64.08
2019-06-26T17:04:12.656Z,64.21
2019-06-26T17:06:39.574Z,64.17
2019-06-26T17:09:06.665Z,64.16
2019-06-26T17:11:33.483Z,64.13
2019-06-26T17:14:00.478Z,64.15
2019-06-26T17:16:27.509Z,64.26
2019-06-26T17:18:54.280Z,64.23
2019-06-26T17:21:21.092Z,64.23
2019-06-26T17:23:47.881Z,64.27
2019-06-26T17:26:14.932Z,64.25
2019-06-26T17:28:41.722Z,64.23
2019-06-26T17:31:08.584Z,64.26
2019-06-26T17:33:35.367Z,64.30
2019-06-26T17:36:02.162Z,64.32
2019-06-26T17:38:28.947Z,64.34
2019-06-26T17:40:58.594Z,64.39
2019-06-26T17:43:24.236Z,64.40
2019-06-26T17:45:51.320Z,64.40
2019-06-26T17:48:18.157Z,64.33
2019-06-26T17:50:44.926Z,64.31
2019-06-26T17:53:21.184Z,64.31
2019-06-26T17:55:40.257Z,64.24
2019-06-26T17:58:07.110Z,64.23
2019-06-26T18:00:33.884Z,64.16
2019-06-26T18:03:00.686Z,64.10
2019-06-26T18:05:27.480Z,64.07
2019-06-26T18:07:54.335Z,64.10
2019-06-26T18:10:21.128Z,64.04
2019-06-26T18:12:47.904Z,64.05
2019-06-26T18:15:14.711Z,64.01
2019-06-26T18:17:41.546Z,64.04
2019-06-26T18:20:08.330Z,64.03
2019-06-26T18:22:35.111Z,64.11
2019-06-26T18:25:01.985Z,64.11
2019-06-26T18:27:29.014Z,64.13
2019-06-26T18:29:55.801Z,64.15
2019-06-26T18:32:22.579Z,64.15
2019-06-26T18:34:49.344Z,64.13
2019-06-26T18:37:16.136Z,64.15
2019-06-26T18:39:42.982Z,64.17
2019-06-26T18:42:09.765Z,64.15
2019-06-26T18:44:36.559Z,64.15
2019-06-26T18:47:03.363Z,64.16
2019-06-26T18:49:30.243Z,64.18
2019-06-26T18:51:57.026Z,64.19
2019-06-26T18:54:23.840Z,64.20
2019-06-26T18:56:50.690Z,63.46
2019-06-26T18:59:17.515Z,60.24
2019-06-26T19:01:44.292Z,59.82
2019-06-26T19:04:11.086Z,59.37
2019-06-26T19:06:37.874Z,58.83
2019-06-26T19:09:04.659Z,58.15
2019-06-26T19:11:31.429Z,58.44
2019-06-26T19:13:58.202Z,59.74
2019-06-26T19:16:25.065Z,60.25
2019-06-26T19:18:51.895Z,60.31
2019-06-26T19:21:18.678Z,59.88
2019-06-26T19:23:45.468Z,60.36
2019-06-26T19:26:12.289Z,61.32
2019-06-26T19:28:39.053Z,62.22
2019-06-26T19:31:05.856Z,63.04
2019-06-26T19:33:32.631Z,64.08
2019-06-26T19:35:59.437Z,64.74
2019-06-26T19:38:26.214Z,64.92
2019-06-26T19:40:52.980Z,64.72
2019-06-26T19:43:19.787Z,64.73
2019-06-26T19:45:46.642Z,64.90
2019-06-26T19:48:13.444Z,64.84
2019-06-26T19:50:40.396Z,64.82
2019-06-26T19:53:07.243Z,64.88
2019-06-26T19:55:34.004Z,64.91
2019-06-26T19:58:00.786Z,64.90
2019-06-26T20:00:27.548Z,64.89
2019-06-26T20:02:54.366Z,64.88
2019-06-26T20:05:21.134Z,64.83
2019-06-26T20:07:47.932Z,64.82
2019-06-26T20:10:14.706Z,64.80
2019-06-26T20:12:41.522Z,64.70
2019-06-26T20:15:08.294Z,64.70
2019-06-26T20:17:35.106Z,64.64
2019-06-26T20:20:01.892Z,64.72
2019-06-26T20:22:28.698Z,64.60
2019-06-26T20:24:57.437Z,64.59
2019-06-26T20:27:24.030Z,64.56
2019-06-26T20:29:50.871Z,64.58
2019-06-26T20:32:17.632Z,64.57
2019-06-26T20:34:44.413Z,64.56
2019-06-26T20:37:11.197Z,64.51
2019-06-26T20:39:38.050Z,64.49
2019-06-26T20:42:04.840Z,64.45
2019-06-26T20:44:31.638Z,64.47
2019-06-26T20:46:58.419Z,64.45
2019-06-26T20:49:25.311Z,64.42
2019-06-26T20:51:52.085Z,64.40
2019-06-26T20:54:18.900Z,64.41
2019-06-26T20:56:45.681Z,64.45
2019-06-26T20:59:12.458Z,64.40
2019-06-26T21:01:39.243Z,64.37
2019-06-26T21:04:06.048Z,64.35
2019-06-26T21:06:32.883Z,64.32
2019-06-26T21:08:59.647Z,64.32
2019-06-26T21:11:26.460Z,64.29
2019-06-26T21:13:53.253Z,64.29
2019-06-26T21:16:20.117Z,64.28
2019-06-26T21:18:46.903Z,64.28
2019-06-26T21:21:13.712Z,64.27
2019-06-26T21:23:40.535Z,64.21
2019-06-26T21:26:07.309Z,64.23
2019-06-26T21:28:34.086Z,64.23
2019-06-26T21:31:00.864Z,64.21
2019-06-26T21:33:27.668Z,64.20
2019-06-26T21:35:54.463Z,64.19
2019-06-26T21:38:21.330Z,64.19
2019-06-26T21:40:48.384Z,64.13
2019-06-26T21:43:15.148Z,64.15
2019-06-26T21:45:41.961Z,64.16
2019-06-26T21:48:08.741Z,64.16
2019-06-26T21:50:35.552Z,64.09
2019-06-26T21:53:02.321Z,64.11
2019-06-26T21:55:34.107Z,64.11
2019-06-26T21:57:57.883Z,64.08
2019-06-26T22:00:26.313Z,64.07
2019-06-26T22:02:53.073Z,64.06
2019-06-26T22:05:20.033Z,64.09
2019-06-26T22:07:46.908Z,64.07
2019-06-26T22:10:13.720Z,64.03
2019-06-26T22:12:40.507Z,64.03
2019-06-26T22:15:07.302Z,64.03
2019-06-26T22:17:34.096Z,63.99
2019-06-26T22:20:00.923Z,63.98
2019-06-26T22:22:27.736Z,63.99
2019-06-26T22:24:54.571Z,64.00
2019-06-26T22:27:21.349Z,63.97
2019-06-26T22:29:48.114Z,63.98
2019-06-26T22:32:14.918Z,63.94
2019-06-26T22:34:41.680Z,63.94
2019-06-26T22:37:08.505Z,63.95
2019-06-26T22:39:35.358Z,63.95
2019-06-26T22:42:02.166Z,63.96
2019-06-26T22:44:28.948Z,63.95
2019-06-26T22:46:55.723Z,63.92
2019-06-26T22:49:22.507Z,63.95
2019-06-26T22:51:49.278Z,63.92
2019-06-26T22:54:19.576Z,63.89
2019-06-26T22:56:44.592Z,63.89
2019-06-26T22:59:11.374Z,63.91
2019-06-26T23:01:38.137Z,63.87
2019-06-26T23:04:04.932Z,63.88
2019-06-26T23:06:31.693Z,63.87
2019-06-26T23:08:58.483Z,63.86
2019-06-26T23:11:25.250Z,63.87
2019-06-26T23:13:52.078Z,63.85
2019-06-26T23:16:18.890Z,63.89
2019-06-26T23:18:45.686Z,63.87
2019-06-26T23:21:12.462Z,63.85
2019-06-26T23:23:39.275Z,63.86
2019-06-26T23:26:06.058Z,63.82
2019-06-26T23:28:32.837Z,63.82
2019-06-26T23:30:59.610Z,63.87
2019-06-26T23:33:26.382Z,63.85
2019-06-26T23:35:53.162Z,63.81
2019-06-26T23:38:19.938Z,63.82
2019-06-26T23:40:46.728Z,63.82
2019-06-26T23:43:13.516Z,63.78
2019-06-26T23:45:40.308Z,63.81
2019-06-26T23:48:07.115Z,63.80
2019-06-26T23:50:33.904Z,63.80
2019-06-26T23:53:00.737Z,63.82
2019-06-26T23:55:27.550Z,63.75
2019-06-26T23:57:59.160Z,63.80
